Time;durP1;ratioP1;P1;durP2;ratioP2;P2;SDS_P1;SDS_P2;PMS_P1;PMS_P2;Temp;Humidity;BMP_temperature;BMP_pressure;BME280_temperature;BME280_humidity;BME280_pressure;Samples;Min_cycle;Max_cycle;Signal;HPM_P1;HPM_P2
2021/11/18 00:01:16;;;;;;;;;;;12.30;98.80;;;;;;5020462;28;20395;-78
2021/11/18 00:03:44;;;;;;;12.63;4.43;;;12.40;98.90;;;;;;5054335;28;19988;-77
2021/11/18 00:06:11;;;;;;;10.52;3.10;;;12.40;98.90;;;;;;5036510;28;20479;-78
2021/11/18 00:08:36;;;;;;;14.95;4.25;;;12.40;99.00;;;;;;5053965;28;20044;-77
2021/11/18 00:11:09;;;;;;;9.15;3.03;;;12.30;99.10;;;;;;5052857;28;20033;-77
2021/11/18 00:13:38;;;;;;;8.95;2.83;;;12.30;99.20;;;;;;5054130;28;20060;-77
2021/11/18 00:16:05;;;;;;;14.85;3.20;;;12.30;99.30;;;;;;5052623;28;20021;-77
2021/11/18 00:18:33;;;;;;;10.43;3.60;;;12.30;99.30;;;;;;5053888;28;20391;-77
2021/11/18 00:21:22;;;;;;;11.65;3.17;;;12.30;99.50;;;;;;5052578;28;20106;-77
2021/11/18 00:23:50;;;;;;;8.45;2.80;;;12.30;99.60;;;;;;5053909;28;20017;-78
2021/11/18 00:26:17;;;;;;;10.95;3.35;;;12.30;99.70;;;;;;5054011;28;20028;-78
2021/11/18 00:28:43;;;;;;;12.63;3.10;;;12.30;99.70;;;;;;5053889;28;20021;-77
2021/11/18 00:31:11;;;;;;;10.25;2.97;;;12.30;99.80;;;;;;5053938;28;20030;-78
2021/11/18 00:33:38;;;;;;;14.63;3.00;;;12.30;99.90;;;;;;5052543;28;20032;-79
2021/11/18 00:36:06;;;;;;;12.38;3.10;;;12.30;99.90;;;;;;5053705;28;20021;-78
2021/11/18 00:38:32;;;;;;;10.25;2.97;;;12.30;99.90;;;;;;5035703;28;20032;-77
2021/11/18 00:40:58;;;;;;;10.07;2.83;;;12.30;99.90;;;;;;5053568;28;20029;-77
2021/11/18 00:43:25;;;;;;;11.07;3.47;;;12.30;99.90;;;;;;5053517;28;20384;-77
2021/11/18 00:45:52;;;;;;;14.10;2.97;;;12.30;99.90;;;;;;5053136;28;20083;-78
2021/11/18 00:48:18;;;;;;;13.65;2.90;;;12.20;99.90;;;;;;5052174;28;20455;-79
2021/11/18 00:50:46;;;;;;;;;;;12.20;99.90;;;;;;5019521;28;20029;-77
2021/11/18 00:53:12;;;;;;;11.70;3.53;;;12.20;99.90;;;;;;5053589;28;19913;-78
2021/11/18 00:55:38;;;;;;;10.23;3.20;;;12.10;99.90;;;;;;5053272;28;20603;-79
2021/11/18 00:58:04;;;;;;;;;;;12.00;99.90;;;;;;5035322;28;20057;-78
2021/11/18 01:00:33;;;;;;;13.27;2.70;;;12.00;99.90;;;;;;5051703;28;19909;-76
2021/11/18 01:03:00;;;;;;;9.70;2.65;;;12.00;99.90;;;;;;5053125;28;20480;-78
2021/11/18 01:05:28;;;;;;;10.13;2.40;;;12.00;99.90;;;;;;5053183;28;20452;-77
2021/11/18 01:07:56;;;;;;;9.48;2.47;;;12.00;99.90;;;;;;5053123;28;20495;-77
2021/11/18 01:10:23;;;;;;;8.98;2.70;;;12.00;99.90;;;;;;5051653;28;20040;-77
2021/11/18 01:12:49;;;;;;;8.88;2.75;;;12.00;99.90;;;;;;5053085;28;20028;-78
2021/11/18 01:15:17;;;;;;;;;;;12.10;99.90;;;;;;5052125;28;20047;-79
2021/11/18 01:17:44;;;;;;;7.10;2.63;;;12.10;99.90;;;;;;5052841;28;20054;-77
2021/11/18 01:20:12;;;;;;;10.77;3.63;;;12.10;99.90;;;;;;5051469;28;20074;-77
2021/11/18 01:22:38;;;;;;;9.45;2.70;;;12.10;99.90;;;;;;5051616;28;20114;-78
2021/11/18 01:25:06;;;;;;;7.15;2.40;;;12.20;99.90;;;;;;5051560;28;20020;-77
2021/11/18 01:27:32;;;;;;;12.18;2.97;;;12.10;99.90;;;;;;5051330;28;20052;-78
2021/11/18 01:29:57;;;;;;;7.63;2.58;;;12.10;99.90;;;;;;5051265;28;20037;-78
2021/11/18 01:32:23;;;;;;;7.20;2.83;;;12.20;99.90;;;;;;5018373;28;20496;-76
2021/11/18 01:34:49;;;;;;;8.45;2.67;;;12.10;99.90;;;;;;5034648;28;20037;-78
2021/11/18 01:37:15;;;;;;;13.73;2.72;;;12.20;99.90;;;;;;5052634;28;20041;-77
2021/11/18 01:39:41;;;;;;;10.05;3.13;;;12.20;99.90;;;;;;5051182;28;20075;-75
2021/11/18 01:42:07;;;;;;;;;;;12.20;99.90;;;;;;5052940;28;20025;-77
2021/11/18 01:44:37;;;;;;;7.50;2.47;;;12.30;99.90;;;;;;5051148;28;20424;-78
2021/11/18 01:47:05;;;;;;;11.15;3.03;;;12.30;99.90;;;;;;5051084;28;20104;-77
2021/11/18 01:49:31;;;;;;;10.35;3.90;;;12.30;99.90;;;;;;5052260;28;20518;-76
2021/11/18 01:52:01;;;;;;;9.65;2.95;;;12.30;99.90;;;;;;5052348;28;20078;-76
2021/11/18 01:54:30;;;;;;;9.52;2.75;;;12.30;99.90;;;;;;5052177;28;20040;-78
2021/11/18 01:56:57;;;;;;;10.68;3.17;;;12.20;99.90;;;;;;5052291;28;20028;-77
2021/11/18 01:59:30;;;;;;;8.23;2.60;;;12.30;99.90;;;;;;5049523;28;20584;-78
2021/11/18 02:01:57;;;;;;;9.55;2.88;;;12.30;99.90;;;;;;5052598;28;20021;-76
2021/11/18 02:04:26;;;;;;;7.80;2.88;;;12.30;99.90;;;;;;5052114;28;20385;-76
2021/11/18 02:06:56;;;;;;;8.18;2.78;;;12.40;99.90;;;;;;5052026;28;20511;-76
2021/11/18 02:09:26;;;;;;;10.75;2.50;;;12.40;99.90;;;;;;5050498;28;20033;-77
2021/11/18 02:11:58;;;;;;;11.57;2.38;;;12.40;99.90;;;;;;5051952;28;20390;-77
2021/11/18 02:14:26;;;;;;;8.98;3.15;;;12.40;99.90;;;;;;5051909;28;20036;-77
2021/11/18 02:17:01;;;;;;;7.43;2.40;;;12.50;99.90;;;;;;5051863;28;20048;-77
2021/11/18 02:19:28;;;;;;;7.28;3.17;;;12.50;99.90;;;;;;5051832;28;20057;-77
2021/11/18 02:21:54;;;;;;;5.85;2.40;;;12.50;99.90;;;;;;5050491;28;20017;-77
2021/11/18 02:24:26;;;;;;;4.43;1.92;;;12.50;99.90;;;;;;5050358;28;20475;-78
2021/11/18 02:26:53;;;;;;;13.45;2.55;;;12.50;99.90;;;;;;5050403;28;20037;-78
2021/11/18 02:29:20;;;;;;;8.35;2.72;;;12.60;99.90;;;;;;5051594;28;20116;-78
2021/11/18 02:31:56;;;;;;;7.50;2.53;;;12.50;99.90;;;;;;5050201;28;20084;-77
2021/11/18 02:34:35;;;;;;;7.20;2.38;;;12.60;99.90;;;;;;5050296;28;20033;-77
2021/11/18 02:37:01;;;;;;;13.00;2.95;;;12.60;99.90;;;;;;5051371;28;20028;-78
2021/11/18 02:39:26;;;;;;;7.60;2.88;;;12.60;99.90;;;;;;5050074;28;20557;-77
2021/11/18 02:41:52;;;;;;;8.60;2.30;;;12.60;99.90;;;;;;5050106;28;20060;-77
2021/11/18 02:44:18;;;;;;;6.32;2.85;;;12.60;99.90;;;;;;5033464;28;20029;-77
2021/11/18 02:46:44;;;;;;;7.10;2.92;;;12.60;99.90;;;;;;5050053;28;20032;-77
2021/11/18 02:49:10;;;;;;;10.82;2.72;;;12.60;99.90;;;;;;5050128;28;20488;-77
2021/11/18 02:51:35;;;;;;;8.38;3.10;;;12.60;99.90;;;;;;5051367;28;20120;-77
2021/11/18 02:54:02;;;;;;;6.78;2.80;;;12.60;99.90;;;;;;5049903;28;20032;-77
2021/11/18 02:56:29;;;;;;;8.93;2.40;;;12.60;99.90;;;;;;5049993;28;20032;-77
2021/11/18 02:58:56;;;;;;;8.52;2.45;;;12.60;99.90;;;;;;5049705;28;20292;-77
2021/11/18 03:01:28;;;;;;;;;;;12.60;99.90;;;;;;5033663;28;20359;-77
2021/11/18 03:03:54;;;;;;;11.07;2.80;;;12.60;99.90;;;;;;5050998;28;19927;-76
2021/11/18 03:06:20;;;;;;;8.77;3.08;;;12.60;99.90;;;;;;5049873;28;20036;-77
2021/11/18 03:08:47;;;;;;;8.68;2.67;;;12.60;99.90;;;;;;5050886;28;20499;-76
2021/11/18 03:11:14;;;;;;;8.50;2.92;;;12.60;99.90;;;;;;5049632;28;20452;-76
2021/11/18 03:13:40;;;;;;;5.90;2.67;;;12.60;99.90;;;;;;5049772;28;20435;-78
2021/11/18 03:16:07;;;;;;;8.95;2.53;;;12.60;99.90;;;;;;5051235;28;20091;-77
2021/11/18 03:18:33;;;;;;;7.18;2.13;;;12.60;99.90;;;;;;5050883;28;20179;-76
2021/11/18 03:21:02;;;;;;;12.25;3.03;;;12.60;99.90;;;;;;5049737;28;20059;-75
2021/11/18 03:23:28;;;;;;;6.60;2.42;;;12.60;99.90;;;;;;5050978;28;20025;-76
2021/11/18 03:25:54;;;;;;;10.52;2.85;;;12.60;99.90;;;;;;5049590;28;20029;-75
2021/11/18 03:28:24;;;;;;;10.52;2.30;;;12.60;99.90;;;;;;5049647;28;20124;-76
2021/11/18 03:30:51;;;;;;;10.73;2.13;;;12.60;99.90;;;;;;5049619;28;20037;-79
2021/11/18 03:33:22;;;;;;;7.22;2.22;;;12.70;99.90;;;;;;5050916;28;20025;-76
2021/11/18 03:35:48;;;;;;;6.30;2.35;;;12.70;99.90;;;;;;5050907;28;20475;-78
2021/11/18 03:38:15;;;;;;;5.25;2.17;;;12.70;99.90;;;;;;5050768;28;20037;-77
2021/11/18 03:40:44;;;;;;;7.30;2.03;;;12.80;99.90;;;;;;5050726;28;20087;-77
2021/11/18 03:43:12;;;;;;;4.45;2.10;;;12.80;99.90;;;;;;5050866;28;20021;-76
2021/11/18 03:45:38;;;;;;;9.05;2.83;;;12.80;99.90;;;;;;5049701;28;20024;-76
2021/11/18 03:48:05;;;;;;;;;;;12.80;99.90;;;;;;5049728;28;20025;-76
2021/11/18 03:50:31;;;;;;;5.90;2.25;;;12.80;99.90;;;;;;5050699;28;19905;-77
2021/11/18 03:52:57;;;;;;;7.65;1.88;;;12.90;99.90;;;;;;5049470;28;20043;-77
2021/11/18 03:55:22;;;;;;;7.07;2.53;;;12.90;99.90;;;;;;5050712;28;20033;-76
2021/11/18 03:57:48;;;;;;;5.40;1.63;;;12.90;99.90;;;;;;5049234;28;20057;-77
2021/11/18 04:00:22;;;;;;;7.65;2.90;;;12.90;99.90;;;;;;5049211;28;20558;-77
2021/11/18 04:02:48;;;;;;;4.57;1.80;;;12.90;99.90;;;;;;5049453;28;20029;-77
2021/11/18 04:05:15;;;;;;;6.22;2.42;;;12.90;99.90;;;;;;5033171;28;20025;-76
2021/11/18 04:07:41;;;;;;;7.78;2.40;;;12.90;99.90;;;;;;5049340;28;20132;-78
2021/11/18 04:10:10;;;;;;;8.32;2.40;;;12.90;99.90;;;;;;5050881;28;20033;-76
2021/11/18 04:12:37;;;;;;;6.28;2.22;;;12.90;99.90;;;;;;5049198;28;20360;-77
2021/11/18 04:15:05;;;;;;;7.45;2.10;;;12.90;99.90;;;;;;5050509;28;20083;-76
2021/11/18 04:17:31;;;;;;;7.07;2.28;;;12.90;99.90;;;;;;5050310;28;20051;-76
2021/11/18 04:19:57;;;;;;;6.97;2.45;;;12.90;99.90;;;;;;5050455;28;20471;-77
2021/11/18 04:22:22;;;;;;;7.18;2.15;;;12.90;99.90;;;;;;5052548;28;20036;-77
2021/11/18 04:24:48;;;;;;;7.82;2.58;;;12.90;99.90;;;;;;5036045;28;20033;-77
2021/11/18 04:27:15;;;;;;;5.47;2.00;;;12.90;99.90;;;;;;5053928;28;20365;-76
2021/11/18 04:29:42;;;;;;;5.35;1.80;;;12.90;99.90;;;;;;5053753;28;20121;-76
2021/11/18 04:32:15;;;;;;;4.68;1.60;;;12.90;99.90;;;;;;5053784;28;20136;-78
2021/11/18 04:34:41;;;;;;;8.80;2.10;;;12.90;99.90;;;;;;5053997;28;20033;-77
2021/11/18 04:37:07;;;;;;;5.28;1.85;;;12.90;99.90;;;;;;5053790;28;20025;-76
2021/11/18 04:39:34;;;;;;;5.30;2.15;;;13.00;99.90;;;;;;5052246;28;20029;-77
2021/11/18 04:42:00;;;;;;;7.68;2.20;;;12.90;99.90;;;;;;5035779;28;20476;-78
2021/11/18 04:44:26;;;;;;;5.55;2.10;;;13.00;99.90;;;;;;5052219;28;20040;-77
2021/11/18 04:46:53;;;;;;;6.72;2.35;;;13.00;99.90;;;;;;5052358;28;20493;-75
2021/11/18 04:49:19;;;;;;;9.15;1.88;;;13.00;99.90;;;;;;5052167;28;20033;-77
2021/11/18 04:51:45;;;;;;;3.78;1.42;;;13.10;99.90;;;;;;5053484;28;20040;-76
2021/11/18 04:54:11;;;;;;;7.65;1.60;;;13.00;99.90;;;;;;5052154;28;20056;-77
2021/11/18 04:56:37;;;;;;;;;;;13.00;99.90;;;;;;5052454;28;20043;-78
2021/11/18 04:59:04;;;;;;;7.28;1.90;;;13.00;99.90;;;;;;5052848;28;20210;-76
2021/11/18 05:01:30;;;;;;;5.85;2.25;;;13.00;99.90;;;;;;5053143;28;20044;-77
2021/11/18 05:03:56;;;;;;;4.65;1.90;;;13.00;99.90;;;;;;5052033;28;20039;-78
2021/11/18 05:06:22;;;;;;;7.05;2.30;;;13.00;99.90;;;;;;5051844;28;20044;-76
2021/11/18 05:08:49;;;;;;;7.38;1.85;;;13.00;99.90;;;;;;5051657;28;20025;-78
2021/11/18 05:11:16;;;;;;;6.78;2.10;;;13.00;99.90;;;;;;5018889;28;20033;-76
2021/11/18 05:13:42;;;;;;;7.35;1.83;;;12.90;99.90;;;;;;5053052;28;20033;-77
2021/11/18 05:16:09;;;;;;;;;;;12.90;99.90;;;;;;5053485;28;20420;-77
2021/11/18 05:18:35;;;;;;;6.38;1.67;;;12.90;99.90;;;;;;5051480;28;19939;-76
2021/11/18 05:21:03;;;;;;;4.03;1.55;;;12.90;99.90;;;;;;5052977;28;20029;-77
2021/11/18 05:23:29;;;;;;;5.60;1.85;;;12.80;99.90;;;;;;5052644;28;20021;-77
2021/11/18 05:25:56;;;;;;;4.88;1.63;;;12.80;99.90;;;;;;5051353;28;20028;-76
2021/11/18 05:28:23;;;;;;;5.10;1.65;;;12.80;99.90;;;;;;5034661;28;20036;-76
2021/11/18 05:30:49;;;;;;;5.15;1.60;;;12.80;99.90;;;;;;5051197;28;20029;-77
2021/11/18 05:33:18;;;;;;;5.45;1.60;;;12.80;99.90;;;;;;5052504;28;20033;-77
2021/11/18 05:35:45;;;;;;;4.07;1.58;;;12.80;99.90;;;;;;5051324;28;20426;-79
2021/11/18 05:38:11;;;;;;;3.38;1.30;;;12.70;99.90;;;;;;5051623;28;20037;-77
2021/11/18 05:40:39;;;;;;;4.85;1.80;;;12.70;99.90;;;;;;5051197;28;20028;-77
2021/11/18 05:43:05;;;;;;;6.05;1.80;;;12.70;99.90;;;;;;5051018;28;20287;-77
2021/11/18 05:45:33;;;;;;;;;;;12.70;99.90;;;;;;5051482;28;20497;-77
2021/11/18 05:47:59;;;;;;;5.45;1.52;;;12.70;99.90;;;;;;5050989;28;20406;-76
2021/11/18 05:50:25;;;;;;;4.50;1.50;;;12.70;99.90;;;;;;5051157;28;20065;-76
2021/11/18 05:52:52;;;;;;;4.07;1.48;;;12.70;99.90;;;;;;5051020;28;20116;-77
2021/11/18 05:55:22;;;;;;;3.63;1.40;;;12.70;99.90;;;;;;5052104;28;20442;-76
2021/11/18 05:57:48;;;;;;;3.45;1.27;;;12.70;99.90;;;;;;5050731;28;20032;-76
2021/11/18 06:00:19;;;;;;;3.97;1.30;;;12.70;99.90;;;;;;5034059;28;20033;-76
2021/11/18 06:02:45;;;;;;;3.97;1.33;;;12.70;99.90;;;;;;5050788;28;20037;-77
2021/11/18 06:05:12;;;;;;;5.72;1.45;;;12.70;99.90;;;;;;5052014;28;20104;-76
2021/11/18 06:07:38;;;;;;;3.88;1.23;;;12.70;99.90;;;;;;5050787;28;20056;-77
2021/11/18 06:10:05;;;;;;;5.47;1.15;;;12.80;99.90;;;;;;5033916;28;20135;-76
2021/11/18 06:12:31;;;;;;;4.30;1.20;;;12.80;99.90;;;;;;5034140;28;20040;-76
2021/11/18 06:14:56;;;;;;;4.55;1.63;;;12.80;99.90;;;;;;5034005;28;20116;-76
2021/11/18 06:17:22;;;;;;;5.78;1.60;;;12.90;99.90;;;;;;5051634;28;20029;-77
2021/11/18 06:19:48;;;;;;;5.13;1.50;;;12.90;99.90;;;;;;5051568;28;20104;-77
2021/11/18 06:22:14;;;;;;;4.43;1.70;;;12.90;99.90;;;;;;5050410;28;20029;-76
2021/11/18 06:24:40;;;;;;;4.93;1.55;;;12.90;99.90;;;;;;5051500;28;20534;-77
2021/11/18 06:27:06;;;;;;;4.40;1.38;;;13.00;99.90;;;;;;5051599;28;20029;-76
2021/11/18 06:29:33;;;;;;;4.68;1.73;;;13.00;99.90;;;;;;5051630;28;20029;-76
2021/11/18 06:32:03;;;;;;;6.55;1.50;;;13.00;99.90;;;;;;5051394;28;20029;-77
2021/11/18 06:34:29;;;;;;;6.35;1.67;;;12.90;99.90;;;;;;5051273;28;20364;-76
2021/11/18 06:36:55;;;;;;;4.55;1.67;;;12.90;99.90;;;;;;5051467;28;20107;-76
2021/11/18 06:39:22;;;;;;;6.55;1.83;;;13.00;99.90;;;;;;5049939;28;20436;-76
2021/11/18 06:41:48;;;;;;;5.88;1.92;;;12.90;99.90;;;;;;5051337;28;20025;-77
2021/11/18 06:44:15;;;;;;;5.20;1.83;;;13.00;99.90;;;;;;5050806;28;20040;-75
2021/11/18 06:46:41;;;;;;;6.28;1.98;;;12.90;99.90;;;;;;5049992;28;20103;-75
2021/11/18 06:49:09;;;;;;;3.83;1.55;;;13.00;99.90;;;;;;5049900;28;20029;-76
2021/11/18 06:51:40;;;;;;;4.50;1.73;;;13.00;99.90;;;;;;5049776;28;20033;-76
2021/11/18 06:54:06;;;;;;;4.20;1.42;;;13.00;99.90;;;;;;5049786;28;20028;-76
2021/11/18 06:56:33;;;;;;;4.43;1.98;;;13.00;99.90;;;;;;5049870;28;20036;-76
2021/11/18 06:59:00;;;;;;;4.13;1.20;;;13.00;99.90;;;;;;5049379;28;20045;-76
2021/11/18 07:01:26;;;;;;;5.10;1.58;;;13.00;99.90;;;;;;5051013;28;20517;-76
2021/11/18 07:03:52;;;;;;;4.60;1.60;;;13.00;99.90;;;;;;5051106;28;20071;-76
2021/11/18 07:06:21;;;;;;;6.22;1.73;;;13.10;99.90;;;;;;5050923;28;20029;-75
2021/11/18 07:08:47;;;;;;;6.22;1.63;;;13.10;99.90;;;;;;5050703;28;20032;-74
2021/11/18 07:11:15;;;;;;;4.65;1.52;;;13.10;99.90;;;;;;5033053;28;20502;-76
2021/11/18 07:13:41;;;;;;;4.88;1.63;;;13.20;99.90;;;;;;5051206;28;20334;-77
2021/11/18 07:16:12;;;;;;;4.25;1.52;;;13.10;99.90;;;;;;5050912;28;20024;-77
2021/11/18 07:18:38;;;;;;;3.88;1.40;;;13.10;99.90;;;;;;5050579;28;20078;-77
2021/11/18 07:21:04;;;;;;;3.28;1.17;;;13.10;99.90;;;;;;5050523;28;20615;-78
2021/11/18 07:23:31;;;;;;;4.85;1.25;;;13.10;99.90;;;;;;5049090;28;20029;-79
2021/11/18 07:25:59;;;;;;;3.58;1.23;;;13.10;99.90;;;;;;5049385;28;20030;-77
2021/11/18 07:28:27;;;;;;;4.15;1.40;;;13.20;99.90;;;;;;5050217;28;20280;-77
2021/11/18 07:30:54;;;;;;;2.97;1.05;;;13.20;99.90;;;;;;5049356;28;20079;-77
2021/11/18 07:33:22;;;;;;;2.75;1.20;;;13.20;99.90;;;;;;5049511;28;20390;-78
2021/11/18 07:35:50;;;;;;;2.65;1.05;;;13.20;99.90;;;;;;5049401;28;20533;-78
2021/11/18 07:38:17;;;;;;;3.55;1.30;;;13.20;99.90;;;;;;5050535;28;20047;-77
2021/11/18 07:40:44;;;;;;;3.72;1.40;;;13.20;99.90;;;;;;5050605;28;20383;-78
2021/11/18 07:43:13;;;;;;;4.88;1.30;;;13.20;99.90;;;;;;5050764;28;20460;-77
2021/11/18 07:45:39;;;;;;;4.38;1.58;;;13.20;99.90;;;;;;5050434;28;20204;-77
2021/11/18 07:48:05;;;;;;;4.15;1.75;;;13.20;99.90;;;;;;5049148;28;20544;-77
2021/11/18 07:50:31;;;;;;;5.55;1.90;;;13.20;99.90;;;;;;5048703;28;20476;-77
2021/11/18 07:52:58;;;;;;;4.68;1.85;;;13.20;99.90;;;;;;5050279;28;20031;-77
2021/11/18 07:55:24;;;;;;;8.25;2.70;;;13.20;99.90;;;;;;5048644;28;20037;-77
2021/11/18 07:57:51;;;;;;;6.28;2.35;;;13.20;99.90;;;;;;5052772;28;20059;-76
2021/11/18 08:00:20;;;;;;;7.68;2.22;;;13.20;99.90;;;;;;5053630;28;20032;-76
2021/11/18 08:02:46;;;;;;;6.40;2.13;;;13.20;99.90;;;;;;5053900;28;20491;-75
2021/11/18 08:05:13;;;;;;;;;;;13.20;99.90;;;;;;5053187;28;20422;-76
2021/11/18 08:07:40;;;;;;;4.95;1.67;;;13.20;99.90;;;;;;5054455;28;19987;-76
2021/11/18 08:10:06;;;;;;;;;;;13.20;99.90;;;;;;5053565;28;20035;-77
2021/11/18 08:12:35;;;;;;;5.60;1.55;;;13.10;99.90;;;;;;5052752;28;20354;-76
2021/11/18 08:15:02;;;;;;;4.35;1.60;;;13.20;99.90;;;;;;5053628;28;20320;-75
2021/11/18 08:17:28;;;;;;;3.72;1.30;;;13.20;99.90;;;;;;5053648;28;20033;-76
2021/11/18 08:19:54;;;;;;;3.60;1.30;;;13.20;99.90;;;;;;5053247;28;20028;-76
2021/11/18 08:22:19;;;;;;;4.72;2.30;;;13.20;99.90;;;;;;5052515;28;20040;-76
2021/11/18 08:24:45;;;;;;;5.38;1.73;;;13.20;99.90;;;;;;5052331;28;20083;-76
2021/11/18 08:27:11;;;;;;;3.53;1.67;;;13.20;99.90;;;;;;5052385;28;20037;-76
2021/11/18 08:29:37;;;;;;;3.50;1.38;;;13.30;99.90;;;;;;5035290;28;20037;-77
2021/11/18 08:32:05;;;;;;;5.70;1.30;;;13.30;99.90;;;;;;5053252;28;20041;-77
2021/11/18 08:34:31;;;;;;;4.43;1.65;;;13.30;99.90;;;;;;5052572;28;20098;-78
2021/11/18 08:36:57;;;;;;;;;;;13.30;99.90;;;;;;5053630;28;20431;-76
2021/11/18 08:39:24;;;;;;;4.05;0.95;;;13.40;99.90;;;;;;5052986;28;19913;-77
2021/11/18 08:41:55;;;;;;;5.07;2.03;;;13.40;99.90;;;;;;5051843;28;20029;-76
2021/11/18 08:44:22;;;;;;;4.68;1.30;;;13.40;99.90;;;;;;5053226;28;20021;-77
2021/11/18 08:46:49;;;;;;;3.58;1.33;;;13.40;99.90;;;;;;5053145;28;20025;-78
2021/11/18 08:49:16;;;;;;;2.75;0.93;;;13.40;99.90;;;;;;5052846;28;20025;-77
2021/11/18 08:51:43;;;;;;;3.38;1.10;;;13.40;99.90;;;;;;5052813;28;20104;-77
2021/11/18 08:54:13;;;;;;;4.22;1.45;;;13.50;99.90;;;;;;5052600;28;20496;-75
2021/11/18 08:56:39;;;;;;;4.15;1.20;;;13.50;99.90;;;;;;5052764;28;20021;-76
2021/11/18 08:59:06;;;;;;;3.05;0.85;;;13.60;99.90;;;;;;5052392;28;20045;-77
2021/11/18 09:01:42;;;;;;;4.30;1.05;;;13.60;99.90;;;;;;5052664;28;20456;-77
2021/11/18 09:04:17;;;;;;;4.55;1.10;;;13.60;99.90;;;;;;5050420;28;20036;-77
2021/11/18 09:06:43;;;;;;;3.60;0.80;;;13.70;99.90;;;;;;5050840;28;20128;-75
2021/11/18 09:09:14;;;;;;;1.48;0.63;;;13.80;99.90;;;;;;5052241;28;20395;-77
2021/11/18 09:11:40;;;;;;;3.20;0.75;;;13.80;99.90;;;;;;5052349;28;20438;-78
2021/11/18 09:14:07;;;;;;;1.85;0.70;;;13.90;99.90;;;;;;5052369;28;20060;-77
2021/11/18 09:16:36;;;;;;;5.22;0.90;;;13.90;99.90;;;;;;5052626;28;20040;-77
2021/11/18 09:19:08;;;;;;;3.53;0.77;;;13.90;99.90;;;;;;5050857;28;20037;-77
2021/11/18 09:21:34;;;;;;;4.93;1.63;;;13.90;99.90;;;;;;5051197;28;20060;-77
2021/11/18 09:24:14;;;;;;;4.47;0.90;;;14.00;99.90;;;;;;5051076;28;20126;-77
2021/11/18 09:26:51;;;;;;;3.25;1.10;;;14.00;99.90;;;;;;5052351;28;20043;-77
2021/11/18 09:29:17;;;;;;;4.80;1.05;;;14.00;99.90;;;;;;5042659;28;20446;-77
2021/11/18 09:31:43;;;;;;;3.05;0.80;;;14.00;99.90;;;;;;5040866;28;20048;-77
2021/11/18 09:34:10;;;;;;;2.65;0.82;;;14.00;99.90;;;;;;5040061;28;20033;-77
2021/11/18 09:36:36;;;;;;;3.25;1.02;;;14.10;99.90;;;;;;5048030;28;20099;-76
2021/11/18 09:39:04;;;;;;;2.65;0.70;;;14.10;99.90;;;;;;5051104;28;20059;-75
2021/11/18 09:42:02;;;;;;;2.15;0.88;;;14.10;99.90;;;;;;5040114;28;20105;-76
2021/11/18 09:44:44;;;;;;;2.60;0.70;;;14.10;99.90;;;;;;5044286;28;20017;-77
2021/11/18 09:47:31;;;;;;;2.72;0.40;;;14.20;99.90;;;;;;5042538;28;20379;-76
2021/11/18 09:50:30;;;;;;;3.35;0.75;;;14.20;99.90;;;;;;5037851;28;20018;-77
2021/11/18 09:53:17;;;;;;;1.55;0.60;;;14.30;99.90;;;;;;5042889;28;20119;-77
2021/11/18 09:56:04;;;;;;;4.72;0.70;;;14.50;99.90;;;;;;5032587;28;20049;-77
2021/11/18 09:58:55;;;;;;;4.82;1.40;;;14.60;99.90;;;;;;5050268;28;20053;-78
2021/11/18 10:01:57;;;;;;;3.53;1.17;;;14.70;99.90;;;;;;5050203;28;20439;-78
2021/11/18 10:04:44;;;;;;;1.75;0.50;;;14.70;99.90;;;;;;5045900;28;20079;-77
2021/11/18 10:07:19;;;;;;;3.13;0.70;;;14.80;99.90;;;;;;5052287;28;20024;-78
2021/11/18 10:10:04;;;;;;;2.00;0.40;;;14.80;99.90;;;;;;5052948;28;20029;-78
2021/11/18 10:12:44;;;;;;;2.28;0.95;;;14.80;99.90;;;;;;5050783;28;20029;-78
2021/11/18 10:15:16;;;;;;;2.60;0.68;;;14.80;99.90;;;;;;5047539;28;20060;-78
2021/11/18 10:17:52;;;;;;;4.32;1.10;;;14.90;99.90;;;;;;5044615;28;20071;-77
2021/11/18 10:20:39;;;;;;;3.40;0.70;;;15.00;99.90;;;;;;5041007;28;20017;-79
2021/11/18 10:23:10;;;;;;;7.22;1.27;;;15.10;99.90;;;;;;5050284;28;20037;-78
2021/11/18 10:25:42;;;;;;;5.43;0.80;;;15.30;99.90;;;;;;5037664;28;20471;-79
2021/11/18 10:28:23;;;;;;;6.35;1.33;;;15.40;99.90;;;;;;5033626;28;20403;-78
2021/11/18 10:31:17;;;;;;;4.22;1.40;;;15.50;99.90;;;;;;5038619;28;20021;-78
2021/11/18 10:34:10;;;;;;;2.30;0.80;;;15.40;99.90;;;;;;5052300;28;20025;-79
2021/11/18 10:36:48;;;;;;;3.25;1.13;;;15.30;99.90;;;;;;5045091;28;20025;-78
2021/11/18 10:39:46;;;;;;;7.40;1.45;;;15.20;99.90;;;;;;5042862;28;20031;-78
2021/11/18 10:42:37;;;;;;;7.40;2.30;;;15.10;99.90;;;;;;5047763;28;20044;-78
2021/11/18 10:45:28;;;;;;;3.92;1.60;;;15.00;99.90;;;;;;5053072;28;20024;-78
2021/11/18 10:47:59;;;;;;;3.90;1.40;;;14.90;99.90;;;;;;5046531;28;20029;-78
2021/11/18 10:50:42;;;;;;;3.30;0.75;;;14.90;99.90;;;;;;5043730;28;20032;-78
2021/11/18 10:53:14;;;;;;;4.75;1.10;;;14.80;99.90;;;;;;5045357;28;20029;-79
2021/11/18 10:55:43;;;;;;;3.50;1.33;;;14.80;99.90;;;;;;5043172;28;20021;-78
2021/11/18 10:58:14;;;;;;;9.05;3.13;;;14.80;99.90;;;;;;5051727;28;20048;-76
2021/11/18 11:00:53;;;;;;;4.47;1.63;;;14.80;99.90;;;;;;5040812;28;20479;-76
2021/11/18 11:03:38;;;;;;;3.45;1.00;;;14.80;99.90;;;;;;5044974;28;20400;-76
2021/11/18 11:06:09;;;;;;;2.97;1.10;;;14.80;99.90;;;;;;5043879;28;20657;-78
2021/11/18 11:08:35;;;;;;;3.05;1.15;;;14.80;99.90;;;;;;5039608;28;20025;-73
2021/11/18 11:11:27;;;;;;;4.10;1.33;;;14.80;99.90;;;;;;5037050;28;20034;-76
2021/11/18 11:14:34;;;;;;;4.28;1.40;;;14.70;99.90;;;;;;5042977;28;20028;-77
2021/11/18 11:17:20;;;;;;;4.78;1.00;;;14.60;99.90;;;;;;5014395;28;20542;-78
2021/11/18 11:19:53;;;;;;;5.97;1.88;;;14.60;99.90;;;;;;5044533;28;20029;-77
2021/11/18 11:22:26;;;;;;;3.72;1.25;;;14.60;99.90;;;;;;5045126;28;20026;-77
2021/11/18 11:25:03;;;;;;;1.92;0.80;;;14.60;99.90;;;;;;5039473;28;20124;-74
2021/11/18 11:28:06;;;;;;;1.77;0.60;;;14.70;99.90;;;;;;5043123;28;20032;-76
2021/11/18 11:30:54;;;;;;;3.03;0.70;;;14.80;99.90;;;;;;5042359;28;20421;-76
2021/11/18 11:33:29;;;;;;;4.05;0.77;;;14.90;99.90;;;;;;5043194;28;20060;-76
2021/11/18 11:36:00;;;;;;;2.55;0.77;;;15.00;99.90;;;;;;5047703;28;20021;-77
2021/11/18 11:38:41;;;;;;;4.38;1.00;;;15.00;99.90;;;;;;5044532;28;20025;-77
2021/11/18 11:41:54;;;;;;;4.07;1.35;;;15.20;99.90;;;;;;5042050;28;20427;-80
2021/11/18 11:44:37;;;;;;;2.53;0.93;;;15.30;99.90;;;;;;4987522;28;20125;-78
2021/11/18 11:47:13;;;;;;;2.47;0.70;;;15.40;99.90;;;;;;5046601;28;20448;-78
2021/11/18 11:49:44;;;;;;;1.23;0.40;;;15.50;99.90;;;;;;5048751;28;20053;-76
2021/11/18 11:52:39;;;;;;;1.65;0.50;;;15.50;99.90;;;;;;5042411;28;20039;-77
2021/11/18 11:55:23;;;;;;;1.98;0.60;;;15.50;99.90;;;;;;5050863;28;20029;-78
2021/11/18 11:58:14;;;;;;;2.45;0.80;;;15.60;99.90;;;;;;5048310;28;20021;-73
2021/11/18 12:01:01;;;;;;;2.95;0.65;;;15.60;99.90;;;;;;5053000;28;20013;-77
2021/11/18 12:03:45;;;;;;;;;;;15.70;99.90;;;;;;5038765;28;20520;-76
2021/11/18 12:06:20;;;;;;;2.22;0.63;;;15.80;99.90;;;;;;5047796;28;19905;-78
2021/11/18 12:09:01;;;;;;;3.33;1.23;;;15.80;99.90;;;;;;5048313;28;20170;-77
2021/11/18 12:11:35;;;;;;;2.83;1.00;;;15.80;99.90;;;;;;5042826;28;20037;-78
2021/11/18 12:14:28;;;;;;;4.07;0.80;;;15.80;99.90;;;;;;5046903;28;20048;-79
2021/11/18 12:17:26;;;;;;;4.35;1.67;;;15.80;99.90;;;;;;5040856;28;20037;-77
2021/11/18 12:19:56;;;;;;;7.80;1.70;;;15.70;99.90;;;;;;5044689;28;20029;-78
2021/11/18 12:22:37;;;;;;;5.38;1.30;;;15.50;99.90;;;;;;5045526;28;20073;-77
2021/11/18 12:25:08;;;;;;;3.22;0.70;;;15.50;99.90;;;;;;5045955;28;20027;-77
2021/11/18 12:27:38;;;;;;;2.83;0.70;;;15.40;99.90;;;;;;5035592;28;20018;-75
2021/11/18 12:30:18;;;;;;;5.05;1.70;;;15.40;99.90;;;;;;5033571;28;20140;-77
2021/11/18 12:33:05;;;;;;;8.82;2.00;;;15.40;99.90;;;;;;5035186;28;20421;-78
2021/11/18 12:35:43;;;;;;;6.65;2.55;;;15.40;99.90;;;;;;5033716;28;20060;-78
2021/11/18 12:38:34;;;;;;;5.90;1.90;;;15.30;99.90;;;;;;5034837;28;20084;-78
2021/11/18 12:41:11;;;;;;;3.92;1.40;;;15.30;99.90;;;;;;5033588;28;20026;-76
2021/11/18 12:44:08;;;;;;;4.93;0.90;;;15.30;99.90;;;;;;5033290;28;20021;-71
2021/11/18 12:46:58;;;;;;;3.13;0.80;;;15.30;99.90;;;;;;5023215;28;20037;-78
2021/11/18 12:49:44;;;;;;;7.10;2.65;;;15.30;99.90;;;;;;5033933;28;20059;-76
2021/11/18 12:52:30;;;;;;;7.82;2.13;;;15.40;99.90;;;;;;5019983;28;20148;-77
2021/11/18 12:55:14;;;;;;;11.30;3.50;;;15.40;99.90;;;;;;5040004;28;20483;-79
2021/11/18 12:57:57;;;;;;;4.32;1.02;;;15.40;99.90;;;;;;5049667;28;20079;-78
2021/11/18 13:01:21;;;;;;;1.88;0.70;;;15.40;99.90;;;;;;5043624;28;20119;-79
2021/11/18 13:03:46;;;;;;;5.38;1.75;;;15.40;99.90;;;;;;5013283;28;20021;-78
2021/11/18 13:06:32;;;;;;;3.95;1.50;;;15.40;99.90;;;;;;5016278;28;20486;-78
2021/11/18 13:09:02;;;;;;;5.70;1.80;;;15.40;99.90;;;;;;5014670;28;20065;-78
2021/11/18 13:11:27;;;;;;;7.53;2.30;;;15.40;99.90;;;;;;5015084;28;20037;-77